sensor_id;sensor_type;location;lat;lon;timestamp;P1;durP1;ratioP1;P2;durP2;ratioP2
65418;SDS011;52027;50.658;14.004;2022-12-11T00:01:58;4.75;;;3.10;;
65418;SDS011;52027;50.658;14.004;2022-12-11T00:04:23;5.82;;;3.40;;
65418;SDS011;52027;50.658;14.004;2022-12-11T00:06:49;5.65;;;3.55;;
65418;SDS011;52027;50.658;14.004;2022-12-11T00:09:18;5.40;;;3.28;;
65418;SDS011;52027;50.658;14.004;2022-12-11T00:11:45;5.45;;;3.38;;
65418;SDS011;52027;50.658;14.004;2022-12-11T00:14:11;5.00;;;3.30;;
65418;SDS011;52027;50.658;14.004;2022-12-11T00:16:37;5.35;;;3.47;;
65418;SDS011;52027;50.658;14.004;2022-12-11T00:19:03;5.20;;;3.35;;
65418;SDS011;52027;50.658;14.004;2022-12-11T00:21:28;5.63;;;3.40;;
65418;SDS011;52027;50.658;14.004;2022-12-11T00:23:54;5.50;;;3.47;;
65418;SDS011;52027;50.658;14.004;2022-12-11T00:26:19;4.85;;;3.22;;
65418;SDS011;52027;50.658;14.004;2022-12-11T00:28:45;5.65;;;3.33;;
65418;SDS011;52027;50.658;14.004;2022-12-11T00:31:12;4.93;;;3.20;;
65418;SDS011;52027;50.658;14.004;2022-12-11T00:33:40;5.35;;;3.25;;
65418;SDS011;52027;50.658;14.004;2022-12-11T00:36:10;6.40;;;3.70;;
65418;SDS011;52027;50.658;14.004;2022-12-11T00:38:38;6.05;;;3.50;;
65418;SDS011;52027;50.658;14.004;2022-12-11T00:41:04;6.03;;;3.58;;
65418;SDS011;52027;50.658;14.004;2022-12-11T00:43:29;4.88;;;3.00;;
65418;SDS011;52027;50.658;14.004;2022-12-11T00:45:54;5.10;;;3.20;;
65418;SDS011;52027;50.658;14.004;2022-12-11T00:48:20;5.07;;;3.20;;
65418;SDS011;52027;50.658;14.004;2022-12-11T00:50:46;5.40;;;3.15;;
65418;SDS011;52027;50.658;14.004;2022-12-11T00:53:12;5.32;;;3.30;;
65418;SDS011;52027;50.658;14.004;2022-12-11T00:55:38;5.15;;;3.42;;
65418;SDS011;52027;50.658;14.004;2022-12-11T00:58:04;4.95;;;3.10;;
65418;SDS011;52027;50.658;14.004;2022-12-11T01:00:30;5.45;;;3.30;;
65418;SDS011;52027;50.658;14.004;2022-12-11T01:02:56;6.72;;;3.35;;
65418;SDS011;52027;50.658;14.004;2022-12-11T01:05:21;5.00;;;3.08;;
65418;SDS011;52027;50.658;14.004;2022-12-11T01:07:46;5.25;;;3.45;;
65418;SDS011;52027;50.658;14.004;2022-12-11T01:10:12;5.50;;;3.25;;
65418;SDS011;52027;50.658;14.004;2022-12-11T01:15:15;6.20;;;3.37;;
65418;SDS011;52027;50.658;14.004;2022-12-11T01:17:40;5.50;;;3.50;;
65418;SDS011;52027;50.658;14.004;2022-12-11T01:20:06;5.63;;;3.53;;
65418;SDS011;52027;50.658;14.004;2022-12-11T01:22:31;5.47;;;3.25;;
65418;SDS011;52027;50.658;14.004;2022-12-11T01:24:57;5.60;;;3.40;;
65418;SDS011;52027;50.658;14.004;2022-12-11T01:27:23;5.30;;;3.17;;
65418;SDS011;52027;50.658;14.004;2022-12-11T01:29:48;5.68;;;3.50;;
65418;SDS011;52027;50.658;14.004;2022-12-11T01:32:14;5.40;;;3.25;;
65418;SDS011;52027;50.658;14.004;2022-12-11T01:34:39;4.82;;;3.03;;
65418;SDS011;52027;50.658;14.004;2022-12-11T01:37:04;5.28;;;3.50;;
65418;SDS011;52027;50.658;14.004;2022-12-11T01:39:30;5.20;;;3.33;;
65418;SDS011;52027;50.658;14.004;2022-12-11T01:41:56;5.45;;;3.42;;
65418;SDS011;52027;50.658;14.004;2022-12-11T01:46:47;5.40;;;3.30;;
65418;SDS011;52027;50.658;14.004;2022-12-11T01:49:13;5.13;;;3.25;;
65418;SDS011;52027;50.658;14.004;2022-12-11T01:52:00;5.57;;;3.53;;
65418;SDS011;52027;50.658;14.004;2022-12-11T01:54:29;5.30;;;3.15;;
65418;SDS011;52027;50.658;14.004;2022-12-11T01:56:57;4.70;;;3.25;;
65418;SDS011;52027;50.658;14.004;2022-12-11T01:59:28;4.95;;;3.20;;
65418;SDS011;52027;50.658;14.004;2022-12-11T02:04:26;4.78;;;3.20;;
65418;SDS011;52027;50.658;14.004;2022-12-11T02:06:52;4.85;;;3.20;;
65418;SDS011;52027;50.658;14.004;2022-12-11T02:09:19;5.43;;;3.47;;
65418;SDS011;52027;50.658;14.004;2022-12-11T02:17:39;6.15;;;3.55;;
65418;SDS011;52027;50.658;14.004;2022-12-11T02:20:14;5.20;;;3.17;;
65418;SDS011;52027;50.658;14.004;2022-12-11T02:22:57;4.70;;;3.05;;
65418;SDS011;52027;50.658;14.004;2022-12-11T02:31:00;4.82;;;3.13;;
65418;SDS011;52027;50.658;14.004;2022-12-11T02:33:40;5.22;;;3.20;;
65418;SDS011;52027;50.658;14.004;2022-12-11T02:36:10;6.03;;;3.10;;
65418;SDS011;52027;50.658;14.004;2022-12-11T02:38:38;5.15;;;3.20;;
65418;SDS011;52027;50.658;14.004;2022-12-11T02:41:07;4.85;;;3.22;;
65418;SDS011;52027;50.658;14.004;2022-12-11T02:43:35;5.05;;;3.17;;
65418;SDS011;52027;50.658;14.004;2022-12-11T02:46:02;4.45;;;2.95;;
65418;SDS011;52027;50.658;14.004;2022-12-11T02:48:31;5.38;;;3.33;;
65418;SDS011;52027;50.658;14.004;2022-12-11T02:50:58;4.75;;;2.85;;
65418;SDS011;52027;50.658;14.004;2022-12-11T02:53:26;4.95;;;3.20;;
65418;SDS011;52027;50.658;14.004;2022-12-11T02:56:00;4.75;;;3.10;;
65418;SDS011;52027;50.658;14.004;2022-12-11T02:58:39;4.88;;;3.10;;
65418;SDS011;52027;50.658;14.004;2022-12-11T03:01:11;4.65;;;3.10;;
65418;SDS011;52027;50.658;14.004;2022-12-11T03:03:36;5.22;;;3.35;;
65418;SDS011;52027;50.658;14.004;2022-12-11T03:06:01;4.60;;;2.92;;
65418;SDS011;52027;50.658;14.004;2022-12-11T03:08:27;4.90;;;3.10;;
65418;SDS011;52027;50.658;14.004;2022-12-11T03:10:53;4.60;;;3.00;;
65418;SDS011;52027;50.658;14.004;2022-12-11T03:13:19;4.78;;;3.00;;
65418;SDS011;52027;50.658;14.004;2022-12-11T03:18:52;5.30;;;3.10;;
65418;SDS011;52027;50.658;14.004;2022-12-11T03:21:31;4.47;;;2.97;;
65418;SDS011;52027;50.658;14.004;2022-12-11T03:24:22;5.63;;;3.35;;
65418;SDS011;52027;50.658;14.004;2022-12-11T03:26:59;5.75;;;3.20;;
65418;SDS011;52027;50.658;14.004;2022-12-11T03:29:33;4.93;;;3.10;;
65418;SDS011;52027;50.658;14.004;2022-12-11T03:32:35;5.13;;;3.08;;
65418;SDS011;52027;50.658;14.004;2022-12-11T03:35:06;5.18;;;2.90;;
65418;SDS011;52027;50.658;14.004;2022-12-11T03:37:39;5.00;;;3.10;;
65418;SDS011;52027;50.658;14.004;2022-12-11T03:40:08;4.60;;;3.00;;
65418;SDS011;52027;50.658;14.004;2022-12-11T03:42:40;4.45;;;3.00;;
65418;SDS011;52027;50.658;14.004;2022-12-11T03:45:09;4.55;;;2.90;;
65418;SDS011;52027;50.658;14.004;2022-12-11T03:47:36;4.60;;;2.97;;
65418;SDS011;52027;50.658;14.004;2022-12-11T03:50:03;4.97;;;3.00;;
65418;SDS011;52027;50.658;14.004;2022-12-11T03:52:30;5.38;;;3.20;;
65418;SDS011;52027;50.658;14.004;2022-12-11T03:54:57;5.05;;;3.20;;
65418;SDS011;52027;50.658;14.004;2022-12-11T03:57:26;4.80;;;3.10;;
65418;SDS011;52027;50.658;14.004;2022-12-11T03:59:56;4.50;;;3.00;;
65418;SDS011;52027;50.658;14.004;2022-12-11T04:02:22;4.57;;;2.90;;
65418;SDS011;52027;50.658;14.004;2022-12-11T04:04:48;4.90;;;3.03;;
65418;SDS011;52027;50.658;14.004;2022-12-11T04:07:13;4.63;;;3.10;;
65418;SDS011;52027;50.658;14.004;2022-12-11T04:09:38;5.05;;;3.05;;
65418;SDS011;52027;50.658;14.004;2022-12-11T04:12:04;4.50;;;3.00;;
65418;SDS011;52027;50.658;14.004;2022-12-11T04:14:29;4.70;;;3.20;;
65418;SDS011;52027;50.658;14.004;2022-12-11T04:17:13;5.03;;;3.00;;
65418;SDS011;52027;50.658;14.004;2022-12-11T04:19:59;5.18;;;3.28;;
65418;SDS011;52027;50.658;14.004;2022-12-11T04:22:43;4.55;;;2.90;;
65418;SDS011;52027;50.658;14.004;2022-12-11T04:25:27;4.50;;;2.90;;
65418;SDS011;52027;50.658;14.004;2022-12-11T04:27:52;4.68;;;2.90;;
65418;SDS011;52027;50.658;14.004;2022-12-11T04:30:19;4.30;;;2.85;;
65418;SDS011;52027;50.658;14.004;2022-12-11T04:32:46;4.30;;;2.92;;
65418;SDS011;52027;50.658;14.004;2022-12-11T04:35:12;4.93;;;3.00;;
65418;SDS011;52027;50.658;14.004;2022-12-11T04:37:38;4.57;;;2.80;;
65418;SDS011;52027;50.658;14.004;2022-12-11T04:40:04;4.43;;;2.78;;
65418;SDS011;52027;50.658;14.004;2022-12-11T04:42:32;4.63;;;2.95;;
65418;SDS011;52027;50.658;14.004;2022-12-11T04:44:57;4.43;;;2.83;;
65418;SDS011;52027;50.658;14.004;2022-12-11T04:47:22;4.50;;;2.85;;
65418;SDS011;52027;50.658;14.004;2022-12-11T04:49:48;5.13;;;2.85;;
65418;SDS011;52027;50.658;14.004;2022-12-11T04:52:13;4.80;;;3.00;;
65418;SDS011;52027;50.658;14.004;2022-12-11T04:54:38;4.90;;;2.95;;
65418;SDS011;52027;50.658;14.004;2022-12-11T04:57:04;4.32;;;2.85;;
65418;SDS011;52027;50.658;14.004;2022-12-11T04:59:30;4.90;;;3.00;;
65418;SDS011;52027;50.658;14.004;2022-12-11T05:01:56;4.20;;;2.90;;
65418;SDS011;52027;50.658;14.004;2022-12-11T05:04:21;4.68;;;3.00;;
65418;SDS011;52027;50.658;14.004;2022-12-11T05:06:48;4.60;;;2.90;;
65418;SDS011;52027;50.658;14.004;2022-12-11T05:09:14;4.60;;;3.00;;
65418;SDS011;52027;50.658;14.004;2022-12-11T05:11:39;4.43;;;2.97;;
65418;SDS011;52027;50.658;14.004;2022-12-11T05:14:04;4.68;;;3.00;;
65418;SDS011;52027;50.658;14.004;2022-12-11T05:16:30;4.85;;;3.00;;
65418;SDS011;52027;50.658;14.004;2022-12-11T05:18:55;4.30;;;2.95;;
65418;SDS011;52027;50.658;14.004;2022-12-11T05:21:20;4.63;;;2.88;;
65418;SDS011;52027;50.658;14.004;2022-12-11T05:23:46;4.70;;;3.00;;
65418;SDS011;52027;50.658;14.004;2022-12-11T05:26:12;4.43;;;2.90;;
65418;SDS011;52027;50.658;14.004;2022-12-11T05:28:41;4.85;;;2.80;;
65418;SDS011;52027;50.658;14.004;2022-12-11T05:31:09;4.22;;;2.83;;
65418;SDS011;52027;50.658;14.004;2022-12-11T05:33:36;3.90;;;2.75;;
65418;SDS011;52027;50.658;14.004;2022-12-11T05:36:02;4.60;;;2.80;;
65418;SDS011;52027;50.658;14.004;2022-12-11T05:38:28;4.78;;;2.90;;
65418;SDS011;52027;50.658;14.004;2022-12-11T05:40:58;4.50;;;2.83;;
65418;SDS011;52027;50.658;14.004;2022-12-11T05:43:26;4.20;;;2.90;;
65418;SDS011;52027;50.658;14.004;2022-12-11T05:45:53;4.32;;;2.80;;
65418;SDS011;52027;50.658;14.004;2022-12-11T05:48:20;4.65;;;2.97;;
65418;SDS011;52027;50.658;14.004;2022-12-11T05:50:55;4.10;;;2.72;;
65418;SDS011;52027;50.658;14.004;2022-12-11T05:53:21;4.22;;;2.70;;
65418;SDS011;52027;50.658;14.004;2022-12-11T05:55:47;4.20;;;2.90;;
65418;SDS011;52027;50.658;14.004;2022-12-11T05:58:12;4.63;;;2.97;;
65418;SDS011;52027;50.658;14.004;2022-12-11T06:00:40;5.15;;;2.80;;
65418;SDS011;52027;50.658;14.004;2022-12-11T06:03:05;4.20;;;2.70;;
65418;SDS011;52027;50.658;14.004;2022-12-11T06:05:31;3.95;;;2.50;;
65418;SDS011;52027;50.658;14.004;2022-12-11T06:07:56;4.40;;;2.63;;
65418;SDS011;52027;50.658;14.004;2022-12-11T06:10:21;4.30;;;2.72;;
65418;SDS011;52027;50.658;14.004;2022-12-11T06:12:47;3.95;;;2.70;;
65418;SDS011;52027;50.658;14.004;2022-12-11T06:15:12;4.15;;;2.60;;
65418;SDS011;52027;50.658;14.004;2022-12-11T06:17:37;4.60;;;2.95;;
65418;SDS011;52027;50.658;14.004;2022-12-11T06:20:03;4.13;;;2.75;;
65418;SDS011;52027;50.658;14.004;2022-12-11T06:22:29;4.40;;;2.90;;
65418;SDS011;52027;50.658;14.004;2022-12-11T06:24:54;4.32;;;2.70;;
65418;SDS011;52027;50.658;14.004;2022-12-11T06:27:19;4.88;;;2.90;;
65418;SDS011;52027;50.658;14.004;2022-12-11T06:29:45;3.83;;;2.67;;
65418;SDS011;52027;50.658;14.004;2022-12-11T06:32:10;3.90;;;2.47;;
65418;SDS011;52027;50.658;14.004;2022-12-11T06:34:36;4.30;;;2.90;;
65418;SDS011;52027;50.658;14.004;2022-12-11T06:37:01;4.35;;;2.90;;
65418;SDS011;52027;50.658;14.004;2022-12-11T06:39:26;4.00;;;2.63;;
65418;SDS011;52027;50.658;14.004;2022-12-11T06:41:52;4.05;;;2.70;;
65418;SDS011;52027;50.658;14.004;2022-12-11T06:44:18;4.32;;;2.70;;
65418;SDS011;52027;50.658;14.004;2022-12-11T06:46:43;4.00;;;2.50;;
65418;SDS011;52027;50.658;14.004;2022-12-11T06:49:08;4.07;;;2.70;;
65418;SDS011;52027;50.658;14.004;2022-12-11T06:51:34;4.10;;;2.63;;
65418;SDS011;52027;50.658;14.004;2022-12-11T06:53:59;4.18;;;2.60;;
65418;SDS011;52027;50.658;14.004;2022-12-11T06:56:24;4.50;;;2.80;;
65418;SDS011;52027;50.658;14.004;2022-12-11T06:58:50;4.47;;;2.75;;
65418;SDS011;52027;50.658;14.004;2022-12-11T07:01:20;4.10;;;2.60;;
65418;SDS011;52027;50.658;14.004;2022-12-11T07:03:47;3.97;;;2.70;;
65418;SDS011;52027;50.658;14.004;2022-12-11T07:06:13;3.65;;;2.60;;
65418;SDS011;52027;50.658;14.004;2022-12-11T07:08:38;3.63;;;2.40;;
65418;SDS011;52027;50.658;14.004;2022-12-11T07:11:05;4.80;;;2.65;;
65418;SDS011;52027;50.658;14.004;2022-12-11T07:13:32;4.22;;;2.80;;
65418;SDS011;52027;50.658;14.004;2022-12-11T07:15:58;4.40;;;2.80;;
65418;SDS011;52027;50.658;14.004;2022-12-11T07:18:24;3.60;;;2.50;;
65418;SDS011;52027;50.658;14.004;2022-12-11T07:20:50;4.45;;;2.85;;
65418;SDS011;52027;50.658;14.004;2022-12-11T07:23:15;3.97;;;2.63;;
65418;SDS011;52027;50.658;14.004;2022-12-11T07:25:41;4.05;;;2.70;;
65418;SDS011;52027;50.658;14.004;2022-12-11T07:28:06;3.90;;;2.58;;
65418;SDS011;52027;50.658;14.004;2022-12-11T07:30:31;3.70;;;2.55;;
65418;SDS011;52027;50.658;14.004;2022-12-11T07:32:56;3.85;;;2.63;;
65418;SDS011;52027;50.658;14.004;2022-12-11T07:35:22;4.18;;;2.60;;
65418;SDS011;52027;50.658;14.004;2022-12-11T07:37:47;3.95;;;2.58;;
65418;SDS011;52027;50.658;14.004;2022-12-11T07:40:12;3.80;;;2.60;;
65418;SDS011;52027;50.658;14.004;2022-12-11T07:42:38;4.13;;;2.75;;
65418;SDS011;52027;50.658;14.004;2022-12-11T07:45:03;3.95;;;2.70;;
65418;SDS011;52027;50.658;14.004;2022-12-11T07:47:29;4.43;;;2.67;;
65418;SDS011;52027;50.658;14.004;2022-12-11T07:49:54;3.45;;;2.40;;
65418;SDS011;52027;50.658;14.004;2022-12-11T07:52:19;4.07;;;2.33;;
65418;SDS011;52027;50.658;14.004;2022-12-11T07:54:45;3.92;;;2.53;;
65418;SDS011;52027;50.658;14.004;2022-12-11T07:57:10;3.97;;;2.50;;
65418;SDS011;52027;50.658;14.004;2022-12-11T07:59:35;3.80;;;2.50;;
65418;SDS011;52027;50.658;14.004;2022-12-11T08:02:01;3.38;;;2.33;;
65418;SDS011;52027;50.658;14.004;2022-12-11T08:04:26;3.67;;;2.45;;
65418;SDS011;52027;50.658;14.004;2022-12-11T08:06:51;3.78;;;2.45;;
65418;SDS011;52027;50.658;14.004;2022-12-11T08:09:17;4.32;;;2.60;;
65418;SDS011;52027;50.658;14.004;2022-12-11T08:11:49;4.00;;;2.65;;
65418;SDS011;52027;50.658;14.004;2022-12-11T08:14:15;3.60;;;2.50;;
65418;SDS011;52027;50.658;14.004;2022-12-11T08:16:41;3.60;;;2.40;;
65418;SDS011;52027;50.658;14.004;2022-12-11T08:19:08;3.88;;;2.53;;
65418;SDS011;52027;50.658;14.004;2022-12-11T08:21:34;4.43;;;2.55;;
65418;SDS011;52027;50.658;14.004;2022-12-11T08:24:00;3.72;;;2.47;;
65418;SDS011;52027;50.658;14.004;2022-12-11T08:26:26;4.07;;;2.63;;
65418;SDS011;52027;50.658;14.004;2022-12-11T08:28:53;3.75;;;2.42;;
65418;SDS011;52027;50.658;14.004;2022-12-11T08:31:19;3.70;;;2.60;;
65418;SDS011;52027;50.658;14.004;2022-12-11T08:33:45;3.63;;;2.28;;
65418;SDS011;52027;50.658;14.004;2022-12-11T08:36:12;3.80;;;2.35;;
65418;SDS011;52027;50.658;14.004;2022-12-11T08:38:39;3.58;;;2.30;;
65418;SDS011;52027;50.658;14.004;2022-12-11T08:41:08;3.72;;;2.53;;
65418;SDS011;52027;50.658;14.004;2022-12-11T08:43:38;3.70;;;2.45;;
65418;SDS011;52027;50.658;14.004;2022-12-11T08:46:04;3.63;;;2.42;;
65418;SDS011;52027;50.658;14.004;2022-12-11T08:48:30;4.10;;;2.50;;
65418;SDS011;52027;50.658;14.004;2022-12-11T08:51:00;3.97;;;2.55;;
65418;SDS011;52027;50.658;14.004;2022-12-11T08:53:30;3.63;;;2.42;;
65418;SDS011;52027;50.658;14.004;2022-12-11T08:56:03;3.45;;;2.28;;
65418;SDS011;52027;50.658;14.004;2022-12-11T08:58:30;3.38;;;2.35;;
65418;SDS011;52027;50.658;14.004;2022-12-11T09:00:55;3.25;;;2.33;;
65418;SDS011;52027;50.658;14.004;2022-12-11T09:03:21;3.45;;;2.40;;
65418;SDS011;52027;50.658;14.004;2022-12-11T09:05:47;4.00;;;2.40;;
65418;SDS011;52027;50.658;14.004;2022-12-11T09:08:12;4.80;;;2.47;;
65418;SDS011;52027;50.658;14.004;2022-12-11T09:10:38;3.33;;;2.22;;
65418;SDS011;52027;50.658;14.004;2022-12-11T09:13:03;3.97;;;2.40;;
65418;SDS011;52027;50.658;14.004;2022-12-11T09:15:29;3.60;;;2.30;;
65418;SDS011;52027;50.658;14.004;2022-12-11T09:17:54;3.63;;;2.42;;
65418;SDS011;52027;50.658;14.004;2022-12-11T09:20:19;4.55;;;2.50;;
65418;SDS011;52027;50.658;14.004;2022-12-11T09:22:45;3.47;;;2.33;;
65418;SDS011;52027;50.658;14.004;2022-12-11T09:25:10;3.63;;;2.30;;
65418;SDS011;52027;50.658;14.004;2022-12-11T09:27:35;3.63;;;2.40;;
65418;SDS011;52027;50.658;14.004;2022-12-11T09:30:01;3.58;;;2.38;;
65418;SDS011;52027;50.658;14.004;2022-12-11T09:32:26;3.85;;;2.60;;
65418;SDS011;52027;50.658;14.004;2022-12-11T09:34:51;3.67;;;2.30;;
65418;SDS011;52027;50.658;14.004;2022-12-11T09:37:17;3.83;;;2.42;;
65418;SDS011;52027;50.658;14.004;2022-12-11T09:39:42;3.55;;;2.42;;
65418;SDS011;52027;50.658;14.004;2022-12-11T09:42:11;3.20;;;2.28;;
65418;SDS011;52027;50.658;14.004;2022-12-11T09:47:40;3.60;;;2.35;;
65418;SDS011;52027;50.658;14.004;2022-12-11T09:52:34;3.33;;;2.25;;
65418;SDS011;52027;50.658;14.004;2022-12-11T09:55:25;3.17;;;2.20;;
65418;SDS011;52027;50.658;14.004;2022-12-11T10:06:16;3.65;;;2.38;;
65418;SDS011;52027;50.658;14.004;2022-12-11T10:09:23;3.15;;;2.10;;
65418;SDS011;52027;50.658;14.004;2022-12-11T10:17:38;3.40;;;2.38;;
65418;SDS011;52027;50.658;14.004;2022-12-11T10:22:33;3.28;;;2.25;;
65418;SDS011;52027;50.658;14.004;2022-12-11T10:25:00;3.45;;;2.40;;
65418;SDS011;52027;50.658;14.004;2022-12-11T10:27:31;3.47;;;2.20;;
65418;SDS011;52027;50.658;14.004;2022-12-11T10:32:38;3.38;;;2.30;;
65418;SDS011;52027;50.658;14.004;2022-12-11T10:35:17;3.25;;;2.10;;
65418;SDS011;52027;50.658;14.004;2022-12-11T10:37:44;3.33;;;2.30;;
65418;SDS011;52027;50.658;14.004;2022-12-11T10:40:10;3.70;;;2.30;;
65418;SDS011;52027;50.658;14.004;2022-12-11T10:42:37;3.15;;;2.13;;
65418;SDS011;52027;50.658;14.004;2022-12-11T10:45:03;3.15;;;2.10;;
65418;SDS011;52027;50.658;14.004;2022-12-11T10:47:29;3.22;;;2.30;;
65418;SDS011;52027;50.658;14.004;2022-12-11T10:49:59;2.97;;;2.17;;
65418;SDS011;52027;50.658;14.004;2022-12-11T10:52:30;3.60;;;2.13;;
65418;SDS011;52027;50.658;14.004;2022-12-11T10:57:35;3.78;;;2.17;;
65418;SDS011;52027;50.658;14.004;2022-12-11T11:00:03;3.00;;;2.13;;
65418;SDS011;52027;50.658;14.004;2022-12-11T11:02:31;4.35;;;2.20;;
65418;SDS011;52027;50.658;14.004;2022-12-11T11:05:09;3.25;;;2.10;;
65418;SDS011;52027;50.658;14.004;2022-12-11T11:08:01;3.40;;;2.10;;
65418;SDS011;52027;50.658;14.004;2022-12-11T11:10:53;3.50;;;2.13;;
65418;SDS011;52027;50.658;14.004;2022-12-11T11:13:25;3.37;;;2.27;;
65418;SDS011;52027;50.658;14.004;2022-12-11T11:16:07;3.40;;;2.30;;
65418;SDS011;52027;50.658;14.004;2022-12-11T11:18:38;3.25;;;2.20;;
65418;SDS011;52027;50.658;14.004;2022-12-11T11:21:06;3.20;;;2.22;;
65418;SDS011;52027;50.658;14.004;2022-12-11T11:23:39;3.08;;;2.13;;
65418;SDS011;52027;50.658;14.004;2022-12-11T11:26:05;3.35;;;2.20;;
65418;SDS011;52027;50.658;14.004;2022-12-11T11:28:53;3.20;;;2.00;;
65418;SDS011;52027;50.658;14.004;2022-12-11T11:31:19;3.25;;;2.10;;
65418;SDS011;52027;50.658;14.004;2022-12-11T11:36:22;3.08;;;2.13;;
65418;SDS011;52027;50.658;14.004;2022-12-11T11:39:03;3.45;;;2.17;;
65418;SDS011;52027;50.658;14.004;2022-12-11T11:42:01;3.50;;;2.17;;
65418;SDS011;52027;50.658;14.004;2022-12-11T11:48:03;2.80;;;1.83;;
65418;SDS011;52027;50.658;14.004;2022-12-11T11:50:31;3.00;;;1.95;;
65418;SDS011;52027;50.658;14.004;2022-12-11T11:53:04;2.90;;;2.00;;
65418;SDS011;52027;50.658;14.004;2022-12-11T11:55:37;3.17;;;2.10;;
65418;SDS011;52027;50.658;14.004;2022-12-11T12:00:40;3.35;;;2.30;;
65418;SDS011;52027;50.658;14.004;2022-12-11T12:03:13;3.10;;;2.10;;
65418;SDS011;52027;50.658;14.004;2022-12-11T12:05:57;3.05;;;2.00;;
65418;SDS011;52027;50.658;14.004;2022-12-11T12:08:49;3.03;;;2.05;;
65418;SDS011;52027;50.658;14.004;2022-12-11T12:21:46;3.00;;;2.00;;
65418;SDS011;52027;50.658;14.004;2022-12-11T12:27:28;2.88;;;2.00;;
65418;SDS011;52027;50.658;14.004;2022-12-11T12:30:03;3.33;;;2.20;;
65418;SDS011;52027;50.658;14.004;2022-12-11T12:35:39;3.10;;;1.80;;
65418;SDS011;52027;50.658;14.004;2022-12-11T12:38:13;3.00;;;1.90;;
65418;SDS011;52027;50.658;14.004;2022-12-11T12:46:36;2.95;;;2.00;;
65418;SDS011;52027;50.658;14.004;2022-12-11T12:52:17;2.70;;;1.90;;
65418;SDS011;52027;50.658;14.004;2022-12-11T12:57:54;3.22;;;2.00;;
65418;SDS011;52027;50.658;14.004;2022-12-11T13:03:03;3.10;;;2.03;;
65418;SDS011;52027;50.658;14.004;2022-12-11T13:05:57;3.22;;;2.10;;
65418;SDS011;52027;50.658;14.004;2022-12-11T13:08:25;3.20;;;2.10;;
65418;SDS011;52027;50.658;14.004;2022-12-11T13:11:04;3.03;;;1.98;;
65418;SDS011;52027;50.658;14.004;2022-12-11T13:13:33;3.20;;;2.00;;
65418;SDS011;52027;50.658;14.004;2022-12-11T13:18:41;2.70;;;1.80;;
65418;SDS011;52027;50.658;14.004;2022-12-11T13:21:29;2.70;;;1.90;;
65418;SDS011;52027;50.658;14.004;2022-12-11T13:26:37;3.10;;;2.00;;
65418;SDS011;52027;50.658;14.004;2022-12-11T13:29:03;3.08;;;1.95;;
65418;SDS011;52027;50.658;14.004;2022-12-11T13:31:33;2.97;;;1.90;;
65418;SDS011;52027;50.658;14.004;2022-12-11T13:34:14;2.63;;;1.85;;
65418;SDS011;52027;50.658;14.004;2022-12-11T13:36:51;2.85;;;1.90;;
65418;SDS011;52027;50.658;14.004;2022-12-11T13:39:19;2.67;;;1.80;;
65418;SDS011;52027;50.658;14.004;2022-12-11T13:41:49;2.78;;;1.80;;
65418;SDS011;52027;50.658;14.004;2022-12-11T13:44:22;2.80;;;1.90;;
65418;SDS011;52027;50.658;14.004;2022-12-11T13:46:50;3.35;;;1.95;;
65418;SDS011;52027;50.658;14.004;2022-12-11T13:49:28;2.78;;;1.90;;
65418;SDS011;52027;50.658;14.004;2022-12-11T13:51:58;2.83;;;1.77;;
65418;SDS011;52027;50.658;14.004;2022-12-11T13:54:25;2.63;;;1.73;;
65418;SDS011;52027;50.658;14.004;2022-12-11T13:59:53;3.10;;;2.00;;
65418;SDS011;52027;50.658;14.004;2022-12-11T14:05:03;2.90;;;1.90;;
65418;SDS011;52027;50.658;14.004;2022-12-11T14:07:32;2.95;;;2.00;;
65418;SDS011;52027;50.658;14.004;2022-12-11T14:10:21;3.90;;;2.00;;
65418;SDS011;52027;50.658;14.004;2022-12-11T14:12:52;3.35;;;2.00;;
65418;SDS011;52027;50.658;14.004;2022-12-11T14:15:23;2.75;;;1.80;;
65418;SDS011;52027;50.658;14.004;2022-12-11T14:17:49;2.67;;;1.80;;
65418;SDS011;52027;50.658;14.004;2022-12-11T14:20:19;2.88;;;1.90;;
65418;SDS011;52027;50.658;14.004;2022-12-11T14:22:47;3.28;;;1.95;;
65418;SDS011;52027;50.658;14.004;2022-12-11T14:25:20;2.85;;;1.90;;
65418;SDS011;52027;50.658;14.004;2022-12-11T14:27:49;3.03;;;1.98;;
65418;SDS011;52027;50.658;14.004;2022-12-11T14:30:20;2.75;;;1.80;;
65418;SDS011;52027;50.658;14.004;2022-12-11T14:32:46;2.67;;;1.80;;
65418;SDS011;52027;50.658;14.004;2022-12-11T14:35:27;2.60;;;1.80;;
65418;SDS011;52027;50.658;14.004;2022-12-11T14:37:55;3.10;;;1.95;;
65418;SDS011;52027;50.658;14.004;2022-12-11T14:40:26;2.80;;;1.80;;
65418;SDS011;52027;50.658;14.004;2022-12-11T14:42:56;3.03;;;1.83;;
65418;SDS011;52027;50.658;14.004;2022-12-11T14:48:00;2.70;;;1.80;;
65418;SDS011;52027;50.658;14.004;2022-12-11T14:50:41;2.60;;;1.88;;
65418;SDS011;52027;50.658;14.004;2022-12-11T14:53:13;2.85;;;1.60;;
65418;SDS011;52027;50.658;14.004;2022-12-11T14:55:43;2.67;;;1.77;;
65418;SDS011;52027;50.658;14.004;2022-12-11T14:58:21;3.03;;;1.80;;
65418;SDS011;52027;50.658;14.004;2022-12-11T15:01:02;2.60;;;1.60;;
65418;SDS011;52027;50.658;14.004;2022-12-11T15:03:34;2.83;;;1.80;;
65418;SDS011;52027;50.658;14.004;2022-12-11T15:11:42;2.72;;;1.85;;
65418;SDS011;52027;50.658;14.004;2022-12-11T15:14:08;2.97;;;1.70;;
65418;SDS011;52027;50.658;14.004;2022-12-11T15:16:37;2.88;;;1.98;;
65418;SDS011;52027;50.658;14.004;2022-12-11T15:19:05;2.40;;;1.70;;
65418;SDS011;52027;50.658;14.004;2022-12-11T15:21:32;2.53;;;1.70;;
65418;SDS011;52027;50.658;14.004;2022-12-11T15:24:01;2.90;;;1.73;;
65418;SDS011;52027;50.658;14.004;2022-12-11T15:26:34;2.70;;;1.90;;
65418;SDS011;52027;50.658;14.004;2022-12-11T15:29:03;2.65;;;1.80;;
65418;SDS011;52027;50.658;14.004;2022-12-11T15:31:47;2.58;;;1.80;;
65418;SDS011;52027;50.658;14.004;2022-12-11T15:34:30;2.67;;;1.80;;
65418;SDS011;52027;50.658;14.004;2022-12-11T15:37:00;2.75;;;1.80;;
65418;SDS011;52027;50.658;14.004;2022-12-11T15:39:25;2.97;;;1.80;;
65418;SDS011;52027;50.658;14.004;2022-12-11T15:41:51;2.90;;;1.83;;
65418;SDS011;52027;50.658;14.004;2022-12-11T15:44:17;2.70;;;1.90;;
65418;SDS011;52027;50.658;14.004;2022-12-11T15:46:45;2.58;;;1.77;;
65418;SDS011;52027;50.658;14.004;2022-12-11T15:49:11;2.72;;;1.75;;
65418;SDS011;52027;50.658;14.004;2022-12-11T15:51:37;2.80;;;1.85;;
65418;SDS011;52027;50.658;14.004;2022-12-11T15:54:02;2.80;;;1.80;;
65418;SDS011;52027;50.658;14.004;2022-12-11T15:56:28;2.50;;;1.80;;
65418;SDS011;52027;50.658;14.004;2022-12-11T15:58:54;2.58;;;1.70;;
65418;SDS011;52027;50.658;14.004;2022-12-11T16:01:23;2.78;;;1.70;;
65418;SDS011;52027;50.658;14.004;2022-12-11T16:03:48;3.05;;;1.88;;
65418;SDS011;52027;50.658;14.004;2022-12-11T16:06:14;2.65;;;1.85;;
65418;SDS011;52027;50.658;14.004;2022-12-11T16:08:39;2.65;;;1.67;;
65418;SDS011;52027;50.658;14.004;2022-12-11T16:11:05;3.13;;;1.92;;
65418;SDS011;52027;50.658;14.004;2022-12-11T16:13:30;2.90;;;1.90;;
65418;SDS011;52027;50.658;14.004;2022-12-11T16:15:55;2.78;;;1.80;;
65418;SDS011;52027;50.658;14.004;2022-12-11T16:18:22;2.63;;;1.77;;
65418;SDS011;52027;50.658;14.004;2022-12-11T16:20:48;2.83;;;1.90;;
65418;SDS011;52027;50.658;14.004;2022-12-11T16:23:14;2.90;;;1.77;;
65418;SDS011;52027;50.658;14.004;2022-12-11T16:25:41;2.60;;;1.70;;
65418;SDS011;52027;50.658;14.004;2022-12-11T16:28:07;2.45;;;1.67;;
65418;SDS011;52027;50.658;14.004;2022-12-11T16:30:35;2.75;;;1.85;;
65418;SDS011;52027;50.658;14.004;2022-12-11T16:33:01;2.80;;;1.80;;